sensor_id;sensor_type;location;lat;lon;timestamp;P1;durP1;ratioP1;P2;durP2;ratioP2
7233;SDS011;3658;47.992;10.158;2022-07-29T00:00:30;2.00;;;1.80;;
7233;SDS011;3658;47.992;10.158;2022-07-29T00:02:57;1.93;;;1.73;;
7233;SDS011;3658;47.992;10.158;2022-07-29T00:05:25;2.37;;;1.90;;
7233;SDS011;3658;47.992;10.158;2022-07-29T00:07:52;2.77;;;1.80;;
7233;SDS011;3658;47.992;10.158;2022-07-29T00:10:20;1.73;;;1.50;;
7233;SDS011;3658;47.992;10.158;2022-07-29T00:12:47;1.70;;;1.60;;
7233;SDS011;3658;47.992;10.158;2022-07-29T00:15:14;1.87;;;1.77;;
7233;SDS011;3658;47.992;10.158;2022-07-29T00:17:41;2.03;;;1.87;;
7233;SDS011;3658;47.992;10.158;2022-07-29T00:20:08;1.63;;;1.53;;
7233;SDS011;3658;47.992;10.158;2022-07-29T00:22:38;2.07;;;1.87;;
7233;SDS011;3658;47.992;10.158;2022-07-29T00:25:05;1.73;;;1.63;;
7233;SDS011;3658;47.992;10.158;2022-07-29T00:27:33;1.67;;;1.57;;
7233;SDS011;3658;47.992;10.158;2022-07-29T00:30:00;2.07;;;1.53;;
7233;SDS011;3658;47.992;10.158;2022-07-29T00:32:27;1.70;;;1.60;;
7233;SDS011;3658;47.992;10.158;2022-07-29T00:34:54;1.70;;;1.60;;
7233;SDS011;3658;47.992;10.158;2022-07-29T00:37:40;1.63;;;1.53;;
7233;SDS011;3658;47.992;10.158;2022-07-29T00:40:07;2.70;;;1.57;;
7233;SDS011;3658;47.992;10.158;2022-07-29T00:42:41;1.60;;;1.50;;
7233;SDS011;3658;47.992;10.158;2022-07-29T00:45:09;2.13;;;1.60;;
7233;SDS011;3658;47.992;10.158;2022-07-29T00:47:36;1.60;;;1.50;;
7233;SDS011;3658;47.992;10.158;2022-07-29T00:50:04;1.70;;;1.60;;
7233;SDS011;3658;47.992;10.158;2022-07-29T00:52:32;1.70;;;1.60;;
7233;SDS011;3658;47.992;10.158;2022-07-29T00:55:01;1.50;;;1.40;;
7233;SDS011;3658;47.992;10.158;2022-07-29T00:57:29;1.63;;;1.53;;
7233;SDS011;3658;47.992;10.158;2022-07-29T00:59:56;1.50;;;1.40;;
7233;SDS011;3658;47.992;10.158;2022-07-29T01:02:23;1.60;;;1.50;;
7233;SDS011;3658;47.992;10.158;2022-07-29T01:04:50;1.60;;;1.50;;
7233;SDS011;3658;47.992;10.158;2022-07-29T01:07:17;1.40;;;1.30;;
7233;SDS011;3658;47.992;10.158;2022-07-29T01:09:45;1.53;;;1.43;;
7233;SDS011;3658;47.992;10.158;2022-07-29T01:12:15;1.33;;;1.23;;
7233;SDS011;3658;47.992;10.158;2022-07-29T01:14:44;1.50;;;1.40;;
7233;SDS011;3658;47.992;10.158;2022-07-29T01:17:14;1.63;;;1.53;;
7233;SDS011;3658;47.992;10.158;2022-07-29T01:19:48;1.43;;;1.33;;
7233;SDS011;3658;47.992;10.158;2022-07-29T01:22:24;1.50;;;1.40;;
7233;SDS011;3658;47.992;10.158;2022-07-29T01:27:51;1.60;;;1.50;;
7233;SDS011;3658;47.992;10.158;2022-07-29T01:30:32;1.60;;;1.50;;
7233;SDS011;3658;47.992;10.158;2022-07-29T01:33:15;1.77;;;1.40;;
7233;SDS011;3658;47.992;10.158;2022-07-29T01:36:00;1.73;;;1.53;;
7233;SDS011;3658;47.992;10.158;2022-07-29T01:38:31;1.50;;;1.40;;
7233;SDS011;3658;47.992;10.158;2022-07-29T01:40:59;1.50;;;1.40;;
7233;SDS011;3658;47.992;10.158;2022-07-29T01:43:34;1.70;;;1.60;;
7233;SDS011;3658;47.992;10.158;2022-07-29T01:46:06;1.53;;;1.43;;
7233;SDS011;3658;47.992;10.158;2022-07-29T01:48:40;1.53;;;1.43;;
7233;SDS011;3658;47.992;10.158;2022-07-29T01:51:12;1.43;;;1.33;;
7233;SDS011;3658;47.992;10.158;2022-07-29T01:53:44;2.60;;;1.57;;
7233;SDS011;3658;47.992;10.158;2022-07-29T01:56:16;1.97;;;1.60;;
7233;SDS011;3658;47.992;10.158;2022-07-29T01:58:46;1.27;;;1.17;;
7233;SDS011;3658;47.992;10.158;2022-07-29T02:01:16;1.50;;;1.40;;
7233;SDS011;3658;47.992;10.158;2022-07-29T02:03:45;1.63;;;1.50;;
7233;SDS011;3658;47.992;10.158;2022-07-29T02:06:15;1.37;;;1.27;;
7233;SDS011;3658;47.992;10.158;2022-07-29T02:08:45;1.50;;;1.40;;
7233;SDS011;3658;47.992;10.158;2022-07-29T02:11:13;1.40;;;1.30;;
7233;SDS011;3658;47.992;10.158;2022-07-29T02:13:41;1.53;;;1.43;;
7233;SDS011;3658;47.992;10.158;2022-07-29T02:16:09;1.53;;;1.43;;
7233;SDS011;3658;47.992;10.158;2022-07-29T02:18:40;1.40;;;1.30;;
7233;SDS011;3658;47.992;10.158;2022-07-29T02:21:11;1.30;;;1.20;;
7233;SDS011;3658;47.992;10.158;2022-07-29T02:23:43;1.53;;;1.43;;
7233;SDS011;3658;47.992;10.158;2022-07-29T02:26:11;1.30;;;1.20;;
7233;SDS011;3658;47.992;10.158;2022-07-29T02:28:38;1.53;;;1.30;;
7233;SDS011;3658;47.992;10.158;2022-07-29T02:31:07;1.40;;;1.30;;
7233;SDS011;3658;47.992;10.158;2022-07-29T02:33:35;1.37;;;1.27;;
7233;SDS011;3658;47.992;10.158;2022-07-29T02:36:06;1.40;;;1.30;;
7233;SDS011;3658;47.992;10.158;2022-07-29T02:38:33;1.40;;;1.30;;
7233;SDS011;3658;47.992;10.158;2022-07-29T02:41:18;1.30;;;1.20;;
7233;SDS011;3658;47.992;10.158;2022-07-29T02:43:47;1.40;;;1.30;;
7233;SDS011;3658;47.992;10.158;2022-07-29T02:46:20;1.40;;;1.30;;
7233;SDS011;3658;47.992;10.158;2022-07-29T02:48:55;1.40;;;1.20;;
7233;SDS011;3658;47.992;10.158;2022-07-29T02:51:27;1.30;;;1.20;;
7233;SDS011;3658;47.992;10.158;2022-07-29T02:53:58;1.70;;;1.40;;
7233;SDS011;3658;47.992;10.158;2022-07-29T02:56:30;1.40;;;1.30;;
7233;SDS011;3658;47.992;10.158;2022-07-29T02:59:03;1.50;;;1.40;;
7233;SDS011;3658;47.992;10.158;2022-07-29T03:01:34;1.20;;;1.10;;
7233;SDS011;3658;47.992;10.158;2022-07-29T03:04:06;1.10;;;1.10;;
7233;SDS011;3658;47.992;10.158;2022-07-29T03:06:35;1.30;;;1.20;;
7233;SDS011;3658;47.992;10.158;2022-07-29T03:09:04;1.30;;;1.20;;
7233;SDS011;3658;47.992;10.158;2022-07-29T03:11:33;1.30;;;1.20;;
7233;SDS011;3658;47.992;10.158;2022-07-29T03:14:01;1.30;;;1.20;;
7233;SDS011;3658;47.992;10.158;2022-07-29T03:16:30;1.30;;;1.20;;
7233;SDS011;3658;47.992;10.158;2022-07-29T03:19:01;1.20;;;1.10;;
7233;SDS011;3658;47.992;10.158;2022-07-29T03:21:31;1.30;;;1.20;;
7233;SDS011;3658;47.992;10.158;2022-07-29T03:23:59;1.10;;;1.10;;
7233;SDS011;3658;47.992;10.158;2022-07-29T03:26:26;1.40;;;1.30;;
7233;SDS011;3658;47.992;10.158;2022-07-29T03:28:54;1.30;;;1.20;;
7233;SDS011;3658;47.992;10.158;2022-07-29T03:31:21;1.23;;;1.20;;
7233;SDS011;3658;47.992;10.158;2022-07-29T03:33:48;1.40;;;1.30;;
7233;SDS011;3658;47.992;10.158;2022-07-29T03:36:15;1.27;;;1.17;;
7233;SDS011;3658;47.992;10.158;2022-07-29T03:38:44;0.97;;;0.97;;
7233;SDS011;3658;47.992;10.158;2022-07-29T03:41:13;1.60;;;1.50;;
7233;SDS011;3658;47.992;10.158;2022-07-29T03:43:42;1.33;;;1.23;;
7233;SDS011;3658;47.992;10.158;2022-07-29T03:46:10;1.60;;;1.10;;
7233;SDS011;3658;47.992;10.158;2022-07-29T03:48:41;1.40;;;1.30;;
7233;SDS011;3658;47.992;10.158;2022-07-29T03:51:10;1.13;;;1.03;;
7233;SDS011;3658;47.992;10.158;2022-07-29T03:53:38;1.20;;;1.10;;
7233;SDS011;3658;47.992;10.158;2022-07-29T03:56:06;1.40;;;1.30;;
7233;SDS011;3658;47.992;10.158;2022-07-29T03:58:35;1.30;;;1.20;;
7233;SDS011;3658;47.992;10.158;2022-07-29T04:01:04;1.20;;;1.10;;
7233;SDS011;3658;47.992;10.158;2022-07-29T04:03:31;1.37;;;1.27;;
7233;SDS011;3658;47.992;10.158;2022-07-29T04:05:59;1.00;;;1.00;;
7233;SDS011;3658;47.992;10.158;2022-07-29T04:08:27;1.00;;;1.00;;
7233;SDS011;3658;47.992;10.158;2022-07-29T04:10:54;1.40;;;1.30;;
7233;SDS011;3658;47.992;10.158;2022-07-29T04:13:23;1.50;;;1.40;;
7233;SDS011;3658;47.992;10.158;2022-07-29T04:15:49;1.20;;;1.10;;
7233;SDS011;3658;47.992;10.158;2022-07-29T04:18:17;1.40;;;1.30;;
7233;SDS011;3658;47.992;10.158;2022-07-29T04:20:44;4.60;;;1.70;;
7233;SDS011;3658;47.992;10.158;2022-07-29T04:23:11;2.43;;;1.80;;
7233;SDS011;3658;47.992;10.158;2022-07-29T04:25:38;2.13;;;1.73;;
7233;SDS011;3658;47.992;10.158;2022-07-29T04:28:05;3.73;;;2.00;;
7233;SDS011;3658;47.992;10.158;2022-07-29T04:30:34;3.00;;;1.73;;
7233;SDS011;3658;47.992;10.158;2022-07-29T04:33:03;2.53;;;1.80;;
7233;SDS011;3658;47.992;10.158;2022-07-29T04:35:33;3.87;;;2.00;;
7233;SDS011;3658;47.992;10.158;2022-07-29T04:38:01;2.33;;;1.80;;
7233;SDS011;3658;47.992;10.158;2022-07-29T04:40:28;2.83;;;1.97;;
7233;SDS011;3658;47.992;10.158;2022-07-29T04:42:55;2.50;;;1.70;;
7233;SDS011;3658;47.992;10.158;2022-07-29T04:45:23;1.90;;;1.80;;
7233;SDS011;3658;47.992;10.158;2022-07-29T04:47:51;1.80;;;1.70;;
7233;SDS011;3658;47.992;10.158;2022-07-29T04:50:18;3.50;;;1.90;;
7233;SDS011;3658;47.992;10.158;2022-07-29T04:52:45;3.00;;;1.53;;
7233;SDS011;3658;47.992;10.158;2022-07-29T04:55:12;3.97;;;2.07;;
7233;SDS011;3658;47.992;10.158;2022-07-29T04:57:39;2.93;;;1.60;;
7233;SDS011;3658;47.992;10.158;2022-07-29T05:00:07;1.93;;;1.60;;
7233;SDS011;3658;47.992;10.158;2022-07-29T05:02:35;4.10;;;1.97;;
7233;SDS011;3658;47.992;10.158;2022-07-29T05:05:04;9.73;;;2.83;;
7233;SDS011;3658;47.992;10.158;2022-07-29T05:07:32;8.00;;;2.10;;
7233;SDS011;3658;47.992;10.158;2022-07-29T05:09:59;5.73;;;2.40;;
7233;SDS011;3658;47.992;10.158;2022-07-29T05:12:26;4.53;;;2.00;;
7233;SDS011;3658;47.992;10.158;2022-07-29T05:14:53;1.97;;;1.77;;
7233;SDS011;3658;47.992;10.158;2022-07-29T05:17:20;4.30;;;2.00;;
7233;SDS011;3658;47.992;10.158;2022-07-29T05:19:47;3.17;;;1.87;;
7233;SDS011;3658;47.992;10.158;2022-07-29T05:22:17;2.87;;;1.67;;
7233;SDS011;3658;47.992;10.158;2022-07-29T05:24:45;3.87;;;1.97;;
7233;SDS011;3658;47.992;10.158;2022-07-29T05:27:12;4.10;;;2.33;;
7233;SDS011;3658;47.992;10.158;2022-07-29T05:29:39;2.70;;;1.40;;
7233;SDS011;3658;47.992;10.158;2022-07-29T05:32:06;2.10;;;1.63;;
7233;SDS011;3658;47.992;10.158;2022-07-29T05:34:33;1.97;;;1.70;;
7233;SDS011;3658;47.992;10.158;2022-07-29T05:37:00;3.23;;;1.40;;
7233;SDS011;3658;47.992;10.158;2022-07-29T05:39:28;2.40;;;1.57;;
7233;SDS011;3658;47.992;10.158;2022-07-29T05:41:55;2.53;;;1.57;;
7233;SDS011;3658;47.992;10.158;2022-07-29T05:44:22;1.77;;;1.53;;
7233;SDS011;3658;47.992;10.158;2022-07-29T05:46:49;1.53;;;1.43;;
7233;SDS011;3658;47.992;10.158;2022-07-29T05:49:16;1.33;;;1.10;;
7233;SDS011;3658;47.992;10.158;2022-07-29T05:51:44;1.53;;;1.40;;
7233;SDS011;3658;47.992;10.158;2022-07-29T05:54:11;1.40;;;1.30;;
7233;SDS011;3658;47.992;10.158;2022-07-29T05:56:39;1.60;;;1.50;;
7233;SDS011;3658;47.992;10.158;2022-07-29T05:59:06;1.67;;;1.57;;
7233;SDS011;3658;47.992;10.158;2022-07-29T06:01:33;1.90;;;1.50;;
7233;SDS011;3658;47.992;10.158;2022-07-29T06:04:04;1.53;;;1.30;;
7233;SDS011;3658;47.992;10.158;2022-07-29T06:06:31;1.70;;;1.60;;
7233;SDS011;3658;47.992;10.158;2022-07-29T06:08:58;1.73;;;1.40;;
7233;SDS011;3658;47.992;10.158;2022-07-29T06:11:25;1.50;;;1.30;;
7233;SDS011;3658;47.992;10.158;2022-07-29T06:13:54;2.80;;;1.37;;
7233;SDS011;3658;47.992;10.158;2022-07-29T06:16:21;1.43;;;1.33;;
7233;SDS011;3658;47.992;10.158;2022-07-29T06:18:48;1.37;;;1.27;;
7233;SDS011;3658;47.992;10.158;2022-07-29T06:21:15;2.23;;;1.33;;
7233;SDS011;3658;47.992;10.158;2022-07-29T06:23:42;1.40;;;1.30;;
7233;SDS011;3658;47.992;10.158;2022-07-29T06:26:10;1.80;;;1.30;;
7233;SDS011;3658;47.992;10.158;2022-07-29T06:28:37;1.57;;;1.27;;
7233;SDS011;3658;47.992;10.158;2022-07-29T06:31:06;1.30;;;1.20;;
7233;SDS011;3658;47.992;10.158;2022-07-29T06:33:33;1.57;;;1.37;;
7233;SDS011;3658;47.992;10.158;2022-07-29T06:36:00;1.20;;;1.10;;
7233;SDS011;3658;47.992;10.158;2022-07-29T06:38:29;1.53;;;1.40;;
7233;SDS011;3658;47.992;10.158;2022-07-29T06:40:56;1.30;;;1.20;;
7233;SDS011;3658;47.992;10.158;2022-07-29T06:43:26;1.33;;;1.20;;
7233;SDS011;3658;47.992;10.158;2022-07-29T06:45:56;1.30;;;1.20;;
7233;SDS011;3658;47.992;10.158;2022-07-29T06:48:25;1.23;;;1.13;;
7233;SDS011;3658;47.992;10.158;2022-07-29T06:50:53;2.00;;;1.40;;
7233;SDS011;3658;47.992;10.158;2022-07-29T06:53:20;1.33;;;1.20;;
7233;SDS011;3658;47.992;10.158;2022-07-29T06:55:47;1.40;;;1.30;;
7233;SDS011;3658;47.992;10.158;2022-07-29T06:58:14;1.50;;;1.40;;
7233;SDS011;3658;47.992;10.158;2022-07-29T07:00:45;1.53;;;1.43;;
7233;SDS011;3658;47.992;10.158;2022-07-29T07:03:12;1.40;;;1.00;;
7233;SDS011;3658;47.992;10.158;2022-07-29T07:05:41;1.57;;;1.20;;
7233;SDS011;3658;47.992;10.158;2022-07-29T07:08:08;1.33;;;1.23;;
7233;SDS011;3658;47.992;10.158;2022-07-29T07:10:35;2.80;;;1.30;;
7233;SDS011;3658;47.992;10.158;2022-07-29T07:13:02;1.43;;;1.10;;
7233;SDS011;3658;47.992;10.158;2022-07-29T07:15:31;1.40;;;1.23;;
7233;SDS011;3658;47.992;10.158;2022-07-29T07:17:58;1.17;;;1.07;;
7233;SDS011;3658;47.992;10.158;2022-07-29T07:20:25;1.40;;;1.30;;
7233;SDS011;3658;47.992;10.158;2022-07-29T07:22:54;1.20;;;1.10;;
7233;SDS011;3658;47.992;10.158;2022-07-29T07:25:21;1.20;;;1.10;;
7233;SDS011;3658;47.992;10.158;2022-07-29T07:27:48;1.30;;;1.20;;
7233;SDS011;3658;47.992;10.158;2022-07-29T07:30:15;1.33;;;1.23;;
7233;SDS011;3658;47.992;10.158;2022-07-29T07:32:42;1.50;;;1.20;;
7233;SDS011;3658;47.992;10.158;2022-07-29T07:35:10;1.17;;;1.07;;
7233;SDS011;3658;47.992;10.158;2022-07-29T07:37:37;1.43;;;1.33;;
7233;SDS011;3658;47.992;10.158;2022-07-29T07:40:08;1.50;;;1.40;;
7233;SDS011;3658;47.992;10.158;2022-07-29T07:42:36;1.27;;;1.17;;
7233;SDS011;3658;47.992;10.158;2022-07-29T07:45:03;1.33;;;1.23;;
7233;SDS011;3658;47.992;10.158;2022-07-29T07:47:31;2.07;;;1.40;;
7233;SDS011;3658;47.992;10.158;2022-07-29T07:49:58;1.23;;;1.13;;
7233;SDS011;3658;47.992;10.158;2022-07-29T07:52:26;1.20;;;1.10;;
7233;SDS011;3658;47.992;10.158;2022-07-29T07:54:53;1.20;;;1.10;;
7233;SDS011;3658;47.992;10.158;2022-07-29T07:57:21;0.90;;;0.90;;
7233;SDS011;3658;47.992;10.158;2022-07-29T07:59:48;1.20;;;1.10;;
7233;SDS011;3658;47.992;10.158;2022-07-29T08:02:15;1.30;;;1.10;;
7233;SDS011;3658;47.992;10.158;2022-07-29T08:04:42;1.13;;;1.10;;
7233;SDS011;3658;47.992;10.158;2022-07-29T08:07:09;1.07;;;1.03;;
7233;SDS011;3658;47.992;10.158;2022-07-29T08:09:36;0.97;;;0.97;;
7233;SDS011;3658;47.992;10.158;2022-07-29T08:12:03;1.33;;;1.20;;
7233;SDS011;3658;47.992;10.158;2022-07-29T08:14:32;1.20;;;1.10;;
7233;SDS011;3658;47.992;10.158;2022-07-29T08:16:59;1.20;;;1.10;;
7233;SDS011;3658;47.992;10.158;2022-07-29T08:19:26;1.30;;;1.20;;
7233;SDS011;3658;47.992;10.158;2022-07-29T08:21:53;1.23;;;1.13;;
7233;SDS011;3658;47.992;10.158;2022-07-29T08:24:20;1.30;;;1.20;;
7233;SDS011;3658;47.992;10.158;2022-07-29T08:27:05;2.50;;;1.10;;
7233;SDS011;3658;47.992;10.158;2022-07-29T08:29:34;2.20;;;1.20;;
7233;SDS011;3658;47.992;10.158;2022-07-29T08:32:01;1.20;;;1.10;;
7233;SDS011;3658;47.992;10.158;2022-07-29T08:34:28;1.00;;;1.00;;
7233;SDS011;3658;47.992;10.158;2022-07-29T08:36:55;1.30;;;1.10;;
7233;SDS011;3658;47.992;10.158;2022-07-29T08:39:23;1.57;;;1.30;;
7233;SDS011;3658;47.992;10.158;2022-07-29T08:41:51;1.10;;;1.10;;
7233;SDS011;3658;47.992;10.158;2022-07-29T08:44:20;1.23;;;1.13;;
7233;SDS011;3658;47.992;10.158;2022-07-29T08:46:48;1.10;;;1.00;;
7233;SDS011;3658;47.992;10.158;2022-07-29T08:49:16;1.30;;;1.20;;
7233;SDS011;3658;47.992;10.158;2022-07-29T08:51:43;1.07;;;1.03;;
7233;SDS011;3658;47.992;10.158;2022-07-29T08:54:11;1.37;;;1.10;;
7233;SDS011;3658;47.992;10.158;2022-07-29T08:56:44;1.60;;;1.20;;
7233;SDS011;3658;47.992;10.158;2022-07-29T08:59:14;0.93;;;0.93;;
7233;SDS011;3658;47.992;10.158;2022-07-29T09:01:45;1.30;;;1.20;;
7233;SDS011;3658;47.992;10.158;2022-07-29T09:04:15;1.20;;;1.10;;
7233;SDS011;3658;47.992;10.158;2022-07-29T09:06:44;1.13;;;1.03;;
7233;SDS011;3658;47.992;10.158;2022-07-29T09:09:13;1.20;;;1.10;;
7233;SDS011;3658;47.992;10.158;2022-07-29T09:11:40;1.20;;;1.10;;
7233;SDS011;3658;47.992;10.158;2022-07-29T09:14:09;1.00;;;1.00;;
7233;SDS011;3658;47.992;10.158;2022-07-29T09:16:48;1.00;;;1.00;;
7233;SDS011;3658;47.992;10.158;2022-07-29T09:19:22;1.20;;;1.00;;
7233;SDS011;3658;47.992;10.158;2022-07-29T09:21:51;0.90;;;0.90;;
7233;SDS011;3658;47.992;10.158;2022-07-29T09:24:24;1.00;;;1.00;;
7233;SDS011;3658;47.992;10.158;2022-07-29T09:26:52;1.40;;;1.30;;
7233;SDS011;3658;47.992;10.158;2022-07-29T09:29:20;1.33;;;1.23;;
7233;SDS011;3658;47.992;10.158;2022-07-29T09:31:50;1.30;;;1.20;;
7233;SDS011;3658;47.992;10.158;2022-07-29T09:34:22;1.30;;;1.20;;
7233;SDS011;3658;47.992;10.158;2022-07-29T09:36:52;1.00;;;1.00;;
7233;SDS011;3658;47.992;10.158;2022-07-29T09:39:26;0.93;;;0.93;;
7233;SDS011;3658;47.992;10.158;2022-07-29T09:41:57;1.57;;;1.10;;
7233;SDS011;3658;47.992;10.158;2022-07-29T09:44:43;1.30;;;1.20;;
7233;SDS011;3658;47.992;10.158;2022-07-29T09:47:11;1.20;;;1.00;;
7233;SDS011;3658;47.992;10.158;2022-07-29T09:49:53;1.23;;;1.13;;
7233;SDS011;3658;47.992;10.158;2022-07-29T09:52:23;2.17;;;1.20;;
7233;SDS011;3658;47.992;10.158;2022-07-29T09:54:50;1.20;;;1.10;;
7233;SDS011;3658;47.992;10.158;2022-07-29T09:57:22;1.27;;;1.00;;
7233;SDS011;3658;47.992;10.158;2022-07-29T09:59:58;1.17;;;1.07;;
7233;SDS011;3658;47.992;10.158;2022-07-29T10:02:30;1.00;;;1.00;;
7233;SDS011;3658;47.992;10.158;2022-07-29T10:04:59;0.90;;;0.90;;
7233;SDS011;3658;47.992;10.158;2022-07-29T10:07:28;1.37;;;1.27;;
7233;SDS011;3658;47.992;10.158;2022-07-29T10:10:10;1.07;;;1.00;;
7233;SDS011;3658;47.992;10.158;2022-07-29T10:12:47;0.90;;;0.90;;
7233;SDS011;3658;47.992;10.158;2022-07-29T10:15:15;1.37;;;0.90;;
7233;SDS011;3658;47.992;10.158;2022-07-29T10:17:42;1.33;;;1.23;;
7233;SDS011;3658;47.992;10.158;2022-07-29T10:20:11;1.57;;;1.20;;
7233;SDS011;3658;47.992;10.158;2022-07-29T10:22:39;1.20;;;1.10;;
7233;SDS011;3658;47.992;10.158;2022-07-29T10:25:07;1.20;;;1.10;;
7233;SDS011;3658;47.992;10.158;2022-07-29T10:27:35;1.20;;;1.10;;
7233;SDS011;3658;47.992;10.158;2022-07-29T10:30:02;1.30;;;1.20;;
7233;SDS011;3658;47.992;10.158;2022-07-29T10:32:35;1.13;;;1.07;;
7233;SDS011;3658;47.992;10.158;2022-07-29T10:35:24;1.03;;;1.00;;
7233;SDS011;3658;47.992;10.158;2022-07-29T10:38:10;0.93;;;0.93;;
7233;SDS011;3658;47.992;10.158;2022-07-29T10:40:53;1.30;;;1.20;;
7233;SDS011;3658;47.992;10.158;2022-07-29T10:43:45;1.20;;;1.10;;
7233;SDS011;3658;47.992;10.158;2022-07-29T10:46:14;1.53;;;1.33;;
7233;SDS011;3658;47.992;10.158;2022-07-29T10:54:43;1.20;;;1.10;;
7233;SDS011;3658;47.992;10.158;2022-07-29T10:57:22;1.30;;;1.20;;
7233;SDS011;3658;47.992;10.158;2022-07-29T11:02:57;1.40;;;1.30;;
7233;SDS011;3658;47.992;10.158;2022-07-29T11:05:25;1.20;;;1.10;;
7233;SDS011;3658;47.992;10.158;2022-07-29T11:14:00;1.20;;;1.10;;
7233;SDS011;3658;47.992;10.158;2022-07-29T11:16:31;1.20;;;1.10;;
7233;SDS011;3658;47.992;10.158;2022-07-29T11:19:24;1.10;;;1.07;;
7233;SDS011;3658;47.992;10.158;2022-07-29T11:21:51;1.30;;;1.10;;
7233;SDS011;3658;47.992;10.158;2022-07-29T11:24:19;1.40;;;1.30;;
7233;SDS011;3658;47.992;10.158;2022-07-29T11:29:50;1.20;;;1.10;;
7233;SDS011;3658;47.992;10.158;2022-07-29T11:32:18;1.30;;;1.20;;
7233;SDS011;3658;47.992;10.158;2022-07-29T11:34:47;1.37;;;1.27;;
7233;SDS011;3658;47.992;10.158;2022-07-29T11:37:23;1.30;;;1.20;;
7233;SDS011;3658;47.992;10.158;2022-07-29T11:42:43;0.90;;;0.90;;
7233;SDS011;3658;47.992;10.158;2022-07-29T11:45:14;1.00;;;1.00;;
7233;SDS011;3658;47.992;10.158;2022-07-29T11:47:48;1.20;;;1.10;;
7233;SDS011;3658;47.992;10.158;2022-07-29T11:53:09;1.33;;;1.20;;
7233;SDS011;3658;47.992;10.158;2022-07-29T11:55:38;1.20;;;1.10;;
7233;SDS011;3658;47.992;10.158;2022-07-29T11:58:07;1.30;;;1.20;;
7233;SDS011;3658;47.992;10.158;2022-07-29T12:00:35;1.30;;;1.20;;
7233;SDS011;3658;47.992;10.158;2022-07-29T12:03:05;1.30;;;1.20;;
7233;SDS011;3658;47.992;10.158;2022-07-29T12:05:34;1.13;;;1.03;;
7233;SDS011;3658;47.992;10.158;2022-07-29T12:08:10;1.10;;;1.10;;
7233;SDS011;3658;47.992;10.158;2022-07-29T12:10:39;1.30;;;1.20;;
7233;SDS011;3658;47.992;10.158;2022-07-29T12:13:09;1.10;;;1.00;;
7233;SDS011;3658;47.992;10.158;2022-07-29T12:15:36;1.37;;;1.17;;
7233;SDS011;3658;47.992;10.158;2022-07-29T12:18:10;1.10;;;1.10;;
7233;SDS011;3658;47.992;10.158;2022-07-29T12:20:37;1.17;;;1.10;;
7233;SDS011;3658;47.992;10.158;2022-07-29T12:23:05;1.30;;;1.20;;
7233;SDS011;3658;47.992;10.158;2022-07-29T12:25:34;1.07;;;1.00;;
7233;SDS011;3658;47.992;10.158;2022-07-29T12:28:03;1.40;;;1.30;;
7233;SDS011;3658;47.992;10.158;2022-07-29T12:30:42;1.20;;;1.10;;
7233;SDS011;3658;47.992;10.158;2022-07-29T12:33:11;1.23;;;1.13;;
7233;SDS011;3658;47.992;10.158;2022-07-29T12:35:40;0.97;;;0.90;;
7233;SDS011;3658;47.992;10.158;2022-07-29T12:38:09;1.20;;;1.10;;
7233;SDS011;3658;47.992;10.158;2022-07-29T12:40:37;1.30;;;1.20;;
7233;SDS011;3658;47.992;10.158;2022-07-29T12:43:05;1.20;;;1.10;;
7233;SDS011;3658;47.992;10.158;2022-07-29T12:45:36;1.30;;;1.20;;
7233;SDS011;3658;47.992;10.158;2022-07-29T12:48:05;1.20;;;1.10;;
7233;SDS011;3658;47.992;10.158;2022-07-29T12:50:34;1.23;;;1.13;;
7233;SDS011;3658;47.992;10.158;2022-07-29T12:53:09;1.30;;;1.20;;
7233;SDS011;3658;47.992;10.158;2022-07-29T12:55:43;1.20;;;1.10;;
7233;SDS011;3658;47.992;10.158;2022-07-29T12:58:14;1.77;;;1.67;;
7233;SDS011;3658;47.992;10.158;2022-07-29T13:00:58;1.77;;;1.67;;
7233;SDS011;3658;47.992;10.158;2022-07-29T13:03:48;2.53;;;1.90;;
7233;SDS011;3658;47.992;10.158;2022-07-29T13:06:33;2.77;;;2.40;;
7233;SDS011;3658;47.992;10.158;2022-07-29T13:09:04;2.27;;;2.07;;
7233;SDS011;3658;47.992;10.158;2022-07-29T13:11:36;2.40;;;2.10;;
7233;SDS011;3658;47.992;10.158;2022-07-29T13:14:05;3.10;;;2.80;;
7233;SDS011;3658;47.992;10.158;2022-07-29T13:16:34;3.00;;;2.70;;
7233;SDS011;3658;47.992;10.158;2022-07-29T13:19:04;3.20;;;2.70;;
7233;SDS011;3658;47.992;10.158;2022-07-29T13:21:33;3.03;;;2.73;;
7233;SDS011;3658;47.992;10.158;2022-07-29T13:24:00;3.77;;;3.37;;
7233;SDS011;3658;47.992;10.158;2022-07-29T13:26:27;3.37;;;3.07;;
7233;SDS011;3658;47.992;10.158;2022-07-29T13:28:54;3.93;;;3.43;;
7233;SDS011;3658;47.992;10.158;2022-07-29T13:31:21;4.10;;;3.57;;
7233;SDS011;3658;47.992;10.158;2022-07-29T13:33:48;3.83;;;3.43;;
7233;SDS011;3658;47.992;10.158;2022-07-29T13:36:17;4.20;;;3.57;;
7233;SDS011;3658;47.992;10.158;2022-07-29T13:38:44;3.70;;;3.23;;
7233;SDS011;3658;47.992;10.158;2022-07-29T13:41:11;4.23;;;3.03;;
7233;SDS011;3658;47.992;10.158;2022-07-29T13:43:38;3.83;;;3.43;;
7233;SDS011;3658;47.992;10.158;2022-07-29T13:46:05;4.43;;;3.63;;
7233;SDS011;3658;47.992;10.158;2022-07-29T13:48:32;4.00;;;3.50;;
7233;SDS011;3658;47.992;10.158;2022-07-29T13:50:59;4.33;;;3.60;;
7233;SDS011;3658;47.992;10.158;2022-07-29T13:53:27;3.70;;;3.30;;
7233;SDS011;3658;47.992;10.158;2022-07-29T13:55:54;3.77;;;3.33;;
7233;SDS011;3658;47.992;10.158;2022-07-29T13:58:21;4.07;;;3.60;;
7233;SDS011;3658;47.992;10.158;2022-07-29T14:00:49;3.97;;;3.57;;
7233;SDS011;3658;47.992;10.158;2022-07-29T14:03:16;3.60;;;3.30;;
7233;SDS011;3658;47.992;10.158;2022-07-29T14:05:43;4.27;;;3.70;;
7233;SDS011;3658;47.992;10.158;2022-07-29T14:08:10;3.83;;;3.43;;
7233;SDS011;3658;47.992;10.158;2022-07-29T14:10:38;4.07;;;3.67;;
7233;SDS011;3658;47.992;10.158;2022-07-29T14:13:05;4.10;;;3.70;;
7233;SDS011;3658;47.992;10.158;2022-07-29T14:15:32;3.87;;;3.47;;
7233;SDS011;3658;47.992;10.158;2022-07-29T14:17:59;3.30;;;3.00;;
7233;SDS011;3658;47.992;10.158;2022-07-29T14:20:27;3.27;;;2.97;;
7233;SDS011;3658;47.992;10.158;2022-07-29T14:22:54;3.30;;;3.00;;
7233;SDS011;3658;47.992;10.158;2022-07-29T14:25:21;3.40;;;3.10;;
7233;SDS011;3658;47.992;10.158;2022-07-29T14:27:50;4.50;;;3.63;;
7233;SDS011;3658;47.992;10.158;2022-07-29T14:30:18;3.37;;;3.03;;
7233;SDS011;3658;47.992;10.158;2022-07-29T14:32:45;3.20;;;2.90;;
7233;SDS011;3658;47.992;10.158;2022-07-29T14:35:12;3.87;;;3.47;;
7233;SDS011;3658;47.992;10.158;2022-07-29T14:37:40;3.40;;;3.10;;
7233;SDS011;3658;47.992;10.158;2022-07-29T14:40:08;3.43;;;3.10;;
7233;SDS011;3658;47.992;10.158;2022-07-29T14:42:35;3.33;;;3.03;;
7233;SDS011;3658;47.992;10.158;2022-07-29T14:45:05;3.20;;;2.90;;
7233;SDS011;3658;47.992;10.158;2022-07-29T14:47:33;3.70;;;3.20;;
7233;SDS011;3658;47.992;10.158;2022-07-29T14:50:00;3.37;;;2.63;;
7233;SDS011;3658;47.992;10.158;2022-07-29T14:52:27;3.27;;;2.97;;
7233;SDS011;3658;47.992;10.158;2022-07-29T14:54:54;3.40;;;3.10;;
7233;SDS011;3658;47.992;10.158;2022-07-29T14:57:21;3.07;;;2.77;;
7233;SDS011;3658;47.992;10.158;2022-07-29T14:59:48;3.20;;;2.90;;
7233;SDS011;3658;47.992;10.158;2022-07-29T15:02:17;4.93;;;3.17;;
7233;SDS011;3658;47.992;10.158;2022-07-29T15:04:44;2.83;;;2.53;;
7233;SDS011;3658;47.992;10.158;2022-07-29T15:07:13;3.10;;;2.80;;
7233;SDS011;3658;47.992;10.158;2022-07-29T15:09:40;3.23;;;2.93;;
7233;SDS011;3658;47.992;10.158;2022-07-29T15:12:08;3.17;;;2.77;;
7233;SDS011;3658;47.992;10.158;2022-07-29T15:14:35;3.03;;;2.73;;
7233;SDS011;3658;47.992;10.158;2022-07-29T15:17:02;3.20;;;2.90;;
7233;SDS011;3658;47.992;10.158;2022-07-29T15:19:30;2.80;;;2.60;;
7233;SDS011;3658;47.992;10.158;2022-07-29T15:21:57;3.10;;;2.80;;
7233;SDS011;3658;47.992;10.158;2022-07-29T15:24:25;3.40;;;3.07;;
7233;SDS011;3658;47.992;10.158;2022-07-29T15:26:52;2.67;;;2.40;;
7233;SDS011;3658;47.992;10.158;2022-07-29T15:29:19;2.83;;;2.53;;
7233;SDS011;3658;47.992;10.158;2022-07-29T15:31:46;3.40;;;2.83;;
7233;SDS011;3658;47.992;10.158;2022-07-29T15:34:13;3.40;;;3.10;;
7233;SDS011;3658;47.992;10.158;2022-07-29T15:36:41;3.07;;;2.73;;
7233;SDS011;3658;47.992;10.158;2022-07-29T15:39:08;2.80;;;2.57;;